sensor_id;sensor_type;location;lat;lon;timestamp;pressure;altitude;pressure_sealevel;temperature;humidity
8627;BME280;4351;51.422;6.794;2023-03-18T00:01:04;100508.91;;;11.45;100.00
8627;BME280;4351;51.422;6.794;2023-03-18T00:03:34;100581.28;;;11.40;100.00
8627;BME280;4351;51.422;6.794;2023-03-18T00:06:07;100640.81;;;11.38;100.00
8627;BME280;4351;51.422;6.794;2023-03-18T00:08:36;100666.34;;;11.32;100.00
8627;BME280;4351;51.422;6.794;2023-03-18T00:11:05;100697.78;;;11.48;100.00
8627;BME280;4351;51.422;6.794;2023-03-18T00:13:33;100718.22;;;11.52;100.00
8627;BME280;4351;51.422;6.794;2023-03-18T00:16:02;100722.19;;;11.46;100.00
8627;BME280;4351;51.422;6.794;2023-03-18T00:18:31;100736.78;;;11.29;100.00
8627;BME280;4351;51.422;6.794;2023-03-18T00:21:00;100749.03;;;11.35;100.00
8627;BME280;4351;51.422;6.794;2023-03-18T00:23:32;100775.56;;;11.43;100.00
8627;BME280;4351;51.422;6.794;2023-03-18T00:26:00;100783.94;;;11.38;100.00
8627;BME280;4351;51.422;6.794;2023-03-18T00:28:29;100792.53;;;11.30;100.00
8627;BME280;4351;51.422;6.794;2023-03-18T00:31:04;100789.53;;;11.20;100.00
8627;BME280;4351;51.422;6.794;2023-03-18T00:33:35;100799.66;;;11.31;100.00
8627;BME280;4351;51.422;6.794;2023-03-18T00:36:04;100800.91;;;11.25;100.00
8627;BME280;4351;51.422;6.794;2023-03-18T00:38:34;100810.28;;;11.20;100.00
8627;BME280;4351;51.422;6.794;2023-03-18T00:41:02;100822.44;;;11.27;100.00
8627;BME280;4351;51.422;6.794;2023-03-18T00:43:38;100819.72;;;11.27;100.00
8627;BME280;4351;51.422;6.794;2023-03-18T00:46:12;100822.63;;;11.09;100.00
8627;BME280;4351;51.422;6.794;2023-03-18T00:48:42;100836.28;;;11.06;100.00
8627;BME280;4351;51.422;6.794;2023-03-18T00:51:10;100839.19;;;11.03;100.00
8627;BME280;4351;51.422;6.794;2023-03-18T00:53:42;100852.88;;;11.14;100.00
8627;BME280;4351;51.422;6.794;2023-03-18T00:56:10;100845.44;;;11.03;100.00
8627;BME280;4351;51.422;6.794;2023-03-18T00:58:38;100849.09;;;11.02;100.00
8627;BME280;4351;51.422;6.794;2023-03-18T01:01:07;100843.03;;;10.99;100.00
8627;BME280;4351;51.422;6.794;2023-03-18T01:03:35;100856.59;;;10.97;100.00
8627;BME280;4351;51.422;6.794;2023-03-18T01:06:03;100878.03;;;11.00;100.00
8627;BME280;4351;51.422;6.794;2023-03-18T01:08:31;100884.31;;;11.01;100.00
8627;BME280;4351;51.422;6.794;2023-03-18T01:11:01;100886.50;;;10.94;100.00
8627;BME280;4351;51.422;6.794;2023-03-18T01:13:29;100901.66;;;10.97;100.00
8627;BME280;4351;51.422;6.794;2023-03-18T01:15:57;100912.34;;;10.98;100.00
8627;BME280;4351;51.422;6.794;2023-03-18T01:18:25;100918.41;;;11.02;100.00
8627;BME280;4351;51.422;6.794;2023-03-18T01:20:53;100926.63;;;11.00;100.00
8627;BME280;4351;51.422;6.794;2023-03-18T01:23:21;100930.97;;;11.03;100.00
8627;BME280;4351;51.422;6.794;2023-03-18T01:25:49;100936.38;;;11.03;100.00
8627;BME280;4351;51.422;6.794;2023-03-18T01:28:21;100941.56;;;11.06;100.00
8627;BME280;4351;51.422;6.794;2023-03-18T01:30:49;100946.44;;;11.15;100.00
8627;BME280;4351;51.422;6.794;2023-03-18T01:33:20;100949.59;;;11.08;100.00
8627;BME280;4351;51.422;6.794;2023-03-18T01:35:53;100966.28;;;11.14;100.00
8627;BME280;4351;51.422;6.794;2023-03-18T01:38:26;100957.97;;;11.03;100.00
8627;BME280;4351;51.422;6.794;2023-03-18T01:41:00;100980.09;;;10.94;100.00
8627;BME280;4351;51.422;6.794;2023-03-18T01:43:31;100990.56;;;10.84;100.00
8627;BME280;4351;51.422;6.794;2023-03-18T01:48:50;101028.00;;;10.90;100.00
8627;BME280;4351;51.422;6.794;2023-03-18T01:51:18;101054.28;;;10.86;100.00
8627;BME280;4351;51.422;6.794;2023-03-18T01:53:49;101083.59;;;10.92;100.00
8627;BME280;4351;51.422;6.794;2023-03-18T01:56:17;101095.81;;;11.00;100.00
8627;BME280;4351;51.422;6.794;2023-03-18T01:58:52;101103.41;;;11.09;100.00
8627;BME280;4351;51.422;6.794;2023-03-18T02:01:25;101091.91;;;11.06;100.00
8627;BME280;4351;51.422;6.794;2023-03-18T02:03:57;101109.41;;;10.98;100.00
8627;BME280;4351;51.422;6.794;2023-03-18T02:06:26;101124.09;;;10.92;100.00
8627;BME280;4351;51.422;6.794;2023-03-18T02:08:59;101133.69;;;10.98;100.00
8627;BME280;4351;51.422;6.794;2023-03-18T02:11:29;101143.47;;;11.01;100.00
8627;BME280;4351;51.422;6.794;2023-03-18T02:14:00;101143.97;;;10.91;100.00
8627;BME280;4351;51.422;6.794;2023-03-18T02:16:32;101164.09;;;11.02;100.00
8627;BME280;4351;51.422;6.794;2023-03-18T02:19:06;101171.41;;;11.00;100.00
8627;BME280;4351;51.422;6.794;2023-03-18T02:21:44;101168.09;;;10.95;100.00
8627;BME280;4351;51.422;6.794;2023-03-18T02:24:21;101164.16;;;10.84;100.00
8627;BME280;4351;51.422;6.794;2023-03-18T02:26:59;101181.31;;;10.83;100.00
8627;BME280;4351;51.422;6.794;2023-03-18T02:29:37;101190.28;;;10.84;100.00
8627;BME280;4351;51.422;6.794;2023-03-18T02:32:12;101177.03;;;10.79;100.00
8627;BME280;4351;51.422;6.794;2023-03-18T02:34:41;101173.28;;;10.81;100.00
8627;BME280;4351;51.422;6.794;2023-03-18T02:37:11;101176.25;;;10.77;100.00
8627;BME280;4351;51.422;6.794;2023-03-18T02:39:40;101167.63;;;10.70;100.00
8627;BME280;4351;51.422;6.794;2023-03-18T02:42:11;101147.41;;;10.61;100.00
8627;BME280;4351;51.422;6.794;2023-03-18T02:44:46;101134.56;;;10.49;100.00
8627;BME280;4351;51.422;6.794;2023-03-18T02:47:33;101126.63;;;10.45;100.00
8627;BME280;4351;51.422;6.794;2023-03-18T02:50:04;101108.53;;;10.48;100.00
8627;BME280;4351;51.422;6.794;2023-03-18T02:52:32;101104.06;;;10.46;100.00
8627;BME280;4351;51.422;6.794;2023-03-18T02:55:01;101082.78;;;10.42;100.00
8627;BME280;4351;51.422;6.794;2023-03-18T02:57:30;101074.94;;;10.37;100.00
8627;BME280;4351;51.422;6.794;2023-03-18T03:00:00;101071.97;;;10.42;100.00
8627;BME280;4351;51.422;6.794;2023-03-18T03:02:28;101058.00;;;10.51;100.00
8627;BME280;4351;51.422;6.794;2023-03-18T03:04:56;101045.22;;;10.55;100.00
8627;BME280;4351;51.422;6.794;2023-03-18T03:07:25;101015.13;;;10.63;100.00
8627;BME280;4351;51.422;6.794;2023-03-18T03:09:53;100994.56;;;10.60;100.00
8627;BME280;4351;51.422;6.794;2023-03-18T03:12:23;100985.16;;;10.51;100.00
8627;BME280;4351;51.422;6.794;2023-03-18T03:14:54;100976.25;;;10.49;100.00
8627;BME280;4351;51.422;6.794;2023-03-18T03:17:27;100976.22;;;10.51;100.00
8627;BME280;4351;51.422;6.794;2023-03-18T03:19:54;100977.50;;;10.43;100.00
8627;BME280;4351;51.422;6.794;2023-03-18T03:22:23;100981.63;;;10.51;100.00
8627;BME280;4351;51.422;6.794;2023-03-18T03:24:52;100992.78;;;10.43;100.00
8627;BME280;4351;51.422;6.794;2023-03-18T03:27:20;100995.13;;;10.51;100.00
8627;BME280;4351;51.422;6.794;2023-03-18T03:29:48;101007.41;;;10.39;100.00
8627;BME280;4351;51.422;6.794;2023-03-18T03:32:18;101017.31;;;10.38;100.00
8627;BME280;4351;51.422;6.794;2023-03-18T03:34:49;101028.03;;;10.40;100.00
8627;BME280;4351;51.422;6.794;2023-03-18T03:37:17;101040.66;;;10.39;100.00
8627;BME280;4351;51.422;6.794;2023-03-18T03:39:45;101051.25;;;10.42;100.00
8627;BME280;4351;51.422;6.794;2023-03-18T03:42:14;101058.09;;;10.50;100.00
8627;BME280;4351;51.422;6.794;2023-03-18T03:44:43;101050.94;;;10.49;100.00
8627;BME280;4351;51.422;6.794;2023-03-18T03:47:11;101059.28;;;10.44;100.00
8627;BME280;4351;51.422;6.794;2023-03-18T03:49:39;101061.66;;;10.50;100.00
8627;BME280;4351;51.422;6.794;2023-03-18T03:52:10;101082.03;;;10.56;100.00
8627;BME280;4351;51.422;6.794;2023-03-18T03:54:39;101093.94;;;10.52;100.00
8627;BME280;4351;51.422;6.794;2023-03-18T03:57:08;101093.59;;;10.58;100.00
8627;BME280;4351;51.422;6.794;2023-03-18T03:59:36;101111.72;;;10.56;100.00
8627;BME280;4351;51.422;6.794;2023-03-18T04:02:16;101110.91;;;10.54;100.00
8627;BME280;4351;51.422;6.794;2023-03-18T04:04:44;101119.66;;;10.59;100.00
8627;BME280;4351;51.422;6.794;2023-03-18T04:07:24;101125.59;;;10.48;100.00
8627;BME280;4351;51.422;6.794;2023-03-18T04:09:52;101125.38;;;10.53;100.00
8627;BME280;4351;51.422;6.794;2023-03-18T04:12:21;101134.84;;;10.60;100.00
8627;BME280;4351;51.422;6.794;2023-03-18T04:14:55;101144.06;;;10.56;100.00
8627;BME280;4351;51.422;6.794;2023-03-18T04:17:23;101143.28;;;10.54;100.00
8627;BME280;4351;51.422;6.794;2023-03-18T04:19:51;101160.59;;;10.50;100.00
8627;BME280;4351;51.422;6.794;2023-03-18T04:22:22;101170.16;;;10.55;100.00
8627;BME280;4351;51.422;6.794;2023-03-18T04:24:51;101177.41;;;10.55;100.00
8627;BME280;4351;51.422;6.794;2023-03-18T04:27:19;101176.63;;;10.53;100.00
8627;BME280;4351;51.422;6.794;2023-03-18T04:29:49;101189.94;;;10.56;100.00
8627;BME280;4351;51.422;6.794;2023-03-18T04:32:19;101201.50;;;10.58;100.00
8627;BME280;4351;51.422;6.794;2023-03-18T04:34:48;101211.97;;;10.64;100.00
8627;BME280;4351;51.422;6.794;2023-03-18T04:37:16;101213.09;;;10.60;100.00
8627;BME280;4351;51.422;6.794;2023-03-18T04:39:48;101215.47;;;10.66;100.00
8627;BME280;4351;51.422;6.794;2023-03-18T04:42:18;101226.53;;;10.62;100.00
8627;BME280;4351;51.422;6.794;2023-03-18T04:44:46;101223.97;;;10.58;100.00
8627;BME280;4351;51.422;6.794;2023-03-18T04:47:14;101235.13;;;10.68;100.00
8627;BME280;4351;51.422;6.794;2023-03-18T04:49:44;101233.91;;;10.58;100.00
8627;BME280;4351;51.422;6.794;2023-03-18T04:52:13;101243.09;;;10.54;100.00
8627;BME280;4351;51.422;6.794;2023-03-18T04:54:42;101250.41;;;10.52;100.00
8627;BME280;4351;51.422;6.794;2023-03-18T04:57:10;101260.09;;;10.56;100.00
8627;BME280;4351;51.422;6.794;2023-03-18T04:59:47;101265.34;;;10.59;100.00
8627;BME280;4351;51.422;6.794;2023-03-18T05:02:15;101275.16;;;10.60;100.00
8627;BME280;4351;51.422;6.794;2023-03-18T05:04:43;101275.16;;;10.60;100.00
8627;BME280;4351;51.422;6.794;2023-03-18T05:07:13;101290.31;;;10.63;100.00
8627;BME280;4351;51.422;6.794;2023-03-18T05:09:49;101290.16;;;10.66;100.00
8627;BME280;4351;51.422;6.794;2023-03-18T05:12:17;101295.56;;;10.66;100.00
8627;BME280;4351;51.422;6.794;2023-03-18T05:14:45;101299.09;;;10.66;100.00
8627;BME280;4351;51.422;6.794;2023-03-18T05:17:15;101306.28;;;10.67;100.00
8627;BME280;4351;51.422;6.794;2023-03-18T05:19:52;101313.34;;;10.70;100.00
8627;BME280;4351;51.422;6.794;2023-03-18T05:22:22;101316.75;;;10.74;100.00
8627;BME280;4351;51.422;6.794;2023-03-18T05:24:57;101321.09;;;10.76;100.00
8627;BME280;4351;51.422;6.794;2023-03-18T05:27:27;101315.72;;;10.76;100.00
8627;BME280;4351;51.422;6.794;2023-03-18T05:30:03;101321.91;;;10.78;100.00
8627;BME280;4351;51.422;6.794;2023-03-18T05:32:42;101317.38;;;10.79;100.00
8627;BME280;4351;51.422;6.794;2023-03-18T05:35:12;101304.69;;;10.81;100.00
8627;BME280;4351;51.422;6.794;2023-03-18T05:37:45;101309.34;;;10.77;100.00
8627;BME280;4351;51.422;6.794;2023-03-18T05:40:14;101307.19;;;10.84;100.00
8627;BME280;4351;51.422;6.794;2023-03-18T05:42:53;101307.94;;;10.88;100.00
8627;BME280;4351;51.422;6.794;2023-03-18T05:45:31;101305.38;;;10.85;100.00
8627;BME280;4351;51.422;6.794;2023-03-18T05:48:05;101301.78;;;10.84;100.00
8627;BME280;4351;51.422;6.794;2023-03-18T05:50:42;101293.00;;;10.80;100.00
8627;BME280;4351;51.422;6.794;2023-03-18T05:53:15;101293.56;;;10.87;100.00
8627;BME280;4351;51.422;6.794;2023-03-18T05:55:46;101290.06;;;10.85;100.00
8627;BME280;4351;51.422;6.794;2023-03-18T05:58:15;101295.13;;;10.91;100.00
8627;BME280;4351;51.422;6.794;2023-03-18T06:00:45;101290.59;;;10.92;100.00
8627;BME280;4351;51.422;6.794;2023-03-18T06:03:15;101288.16;;;10.87;100.00
8627;BME280;4351;51.422;6.794;2023-03-18T06:05:43;101281.72;;;10.90;100.00
8627;BME280;4351;51.422;6.794;2023-03-18T06:08:13;101276.38;;;10.88;100.00
8627;BME280;4351;51.422;6.794;2023-03-18T06:10:41;101275.00;;;10.81;100.00
8627;BME280;4351;51.422;6.794;2023-03-18T06:13:09;101272.84;;;10.88;100.00
8627;BME280;4351;51.422;6.794;2023-03-18T06:15:37;101274.75;;;10.86;100.00
8627;BME280;4351;51.422;6.794;2023-03-18T06:18:05;101282.44;;;10.76;100.00
8627;BME280;4351;51.422;6.794;2023-03-18T06:20:34;101290.22;;;10.82;100.00
8627;BME280;4351;51.422;6.794;2023-03-18T06:23:02;101299.03;;;11.20;100.00
8627;BME280;4351;51.422;6.794;2023-03-18T06:25:31;101288.38;;;11.00;100.00
8627;BME280;4351;51.422;6.794;2023-03-18T06:28:02;101272.56;;;10.92;100.00
8627;BME280;4351;51.422;6.794;2023-03-18T06:30:30;101273.06;;;11.01;100.00
8627;BME280;4351;51.422;6.794;2023-03-18T06:32:59;101264.47;;;10.92;100.00
8627;BME280;4351;51.422;6.794;2023-03-18T06:35:27;101259.00;;;10.94;100.00
8627;BME280;4351;51.422;6.794;2023-03-18T06:37:58;101268.59;;;11.00;100.00
8627;BME280;4351;51.422;6.794;2023-03-18T06:40:27;101262.03;;;10.88;100.00
8627;BME280;4351;51.422;6.794;2023-03-18T06:42:55;101260.34;;;11.03;100.00
8627;BME280;4351;51.422;6.794;2023-03-18T06:45:30;101257.19;;;10.95;100.00
8627;BME280;4351;51.422;6.794;2023-03-18T06:48:04;101256.13;;;10.97;100.00
8627;BME280;4351;51.422;6.794;2023-03-18T06:50:34;101245.56;;;10.92;100.00
8627;BME280;4351;51.422;6.794;2023-03-18T06:53:11;101253.38;;;10.99;100.00
8627;BME280;4351;51.422;6.794;2023-03-18T06:55:40;101261.78;;;11.43;100.00
8627;BME280;4351;51.422;6.794;2023-03-18T06:58:09;101262.03;;;12.19;100.00
8627;BME280;4351;51.422;6.794;2023-03-18T07:00:45;101241.81;;;12.56;100.00
8627;BME280;4351;51.422;6.794;2023-03-18T07:03:19;101206.44;;;13.17;100.00
8627;BME280;4351;51.422;6.794;2023-03-18T07:05:50;101160.69;;;13.55;100.00
8627;BME280;4351;51.422;6.794;2023-03-18T07:08:19;101128.38;;;13.93;100.00
8627;BME280;4351;51.422;6.794;2023-03-18T07:10:50;101087.03;;;13.89;100.00
8627;BME280;4351;51.422;6.794;2023-03-18T07:13:24;101059.38;;;13.71;100.00
8627;BME280;4351;51.422;6.794;2023-03-18T07:15:52;101055.13;;;13.66;100.00
8627;BME280;4351;51.422;6.794;2023-03-18T07:18:23;101063.28;;;13.66;100.00
8627;BME280;4351;51.422;6.794;2023-03-18T07:20:51;101046.91;;;13.94;100.00
8627;BME280;4351;51.422;6.794;2023-03-18T07:23:22;101028.91;;;14.06;100.00
8627;BME280;4351;51.422;6.794;2023-03-18T07:25:50;101017.19;;;14.06;100.00
8627;BME280;4351;51.422;6.794;2023-03-18T07:28:18;101022.47;;;14.33;100.00
8627;BME280;4351;51.422;6.794;2023-03-18T07:30:46;101007.03;;;14.47;100.00
8627;BME280;4351;51.422;6.794;2023-03-18T07:33:15;100995.25;;;14.59;100.00
8627;BME280;4351;51.422;6.794;2023-03-18T07:35:43;100981.06;;;14.56;100.00
8627;BME280;4351;51.422;6.794;2023-03-18T07:38:11;100982.53;;;14.35;100.00
8627;BME280;4351;51.422;6.794;2023-03-18T07:40:40;100982.78;;;14.57;100.00
8627;BME280;4351;51.422;6.794;2023-03-18T07:43:08;100976.97;;;14.50;100.00
8627;BME280;4351;51.422;6.794;2023-03-18T07:45:36;100969.66;;;14.51;100.00
8627;BME280;4351;51.422;6.794;2023-03-18T07:48:04;100964.00;;;14.16;100.00
8627;BME280;4351;51.422;6.794;2023-03-18T07:50:32;100975.81;;;14.15;100.00
8627;BME280;4351;51.422;6.794;2023-03-18T07:53:00;100983.03;;;13.77;100.00
8627;BME280;4351;51.422;6.794;2023-03-18T07:55:28;100981.38;;;13.87;100.00
8627;BME280;4351;51.422;6.794;2023-03-18T07:57:58;100988.13;;;13.82;100.00
8627;BME280;4351;51.422;6.794;2023-03-18T08:00:29;100991.69;;;13.82;100.00
8627;BME280;4351;51.422;6.794;2023-03-18T08:02:56;100996.84;;;13.46;100.00
8627;BME280;4351;51.422;6.794;2023-03-18T08:05:25;100997.19;;;13.54;100.00
8627;BME280;4351;51.422;6.794;2023-03-18T08:07:53;101007.94;;;13.69;100.00
8627;BME280;4351;51.422;6.794;2023-03-18T08:10:21;101009.25;;;13.63;100.00
8627;BME280;4351;51.422;6.794;2023-03-18T08:12:49;101004.84;;;13.75;100.00
8627;BME280;4351;51.422;6.794;2023-03-18T08:15:21;101015.75;;;13.74;100.00
8627;BME280;4351;51.422;6.794;2023-03-18T08:17:50;101010.25;;;13.88;100.00
8627;BME280;4351;51.422;6.794;2023-03-18T08:20:18;101009.59;;;13.85;100.00
8627;BME280;4351;51.422;6.794;2023-03-18T08:22:46;101010.34;;;13.87;100.00
8627;BME280;4351;51.422;6.794;2023-03-18T08:25:15;101014.13;;;13.71;100.00
8627;BME280;4351;51.422;6.794;2023-03-18T08:27:43;101008.31;;;13.90;100.00
8627;BME280;4351;51.422;6.794;2023-03-18T08:30:12;101016.97;;;13.96;100.00
8627;BME280;4351;51.422;6.794;2023-03-18T08:32:42;101011.44;;;14.10;100.00
8627;BME280;4351;51.422;6.794;2023-03-18T08:35:11;101015.66;;;14.14;100.00
8627;BME280;4351;51.422;6.794;2023-03-18T08:37:39;101009.97;;;14.44;100.00
8627;BME280;4351;51.422;6.794;2023-03-18T08:40:09;101013.81;;;14.66;100.00
8627;BME280;4351;51.422;6.794;2023-03-18T08:42:37;101009.47;;;14.76;100.00
8627;BME280;4351;51.422;6.794;2023-03-18T08:45:06;101007.25;;;14.81;100.00
8627;BME280;4351;51.422;6.794;2023-03-18T08:47:35;101004.22;;;14.86;100.00
8627;BME280;4351;51.422;6.794;2023-03-18T08:50:05;100992.31;;;15.00;100.00
8627;BME280;4351;51.422;6.794;2023-03-18T08:52:33;100996.81;;;14.88;100.00
8627;BME280;4351;51.422;6.794;2023-03-18T08:55:01;100986.84;;;14.89;100.00
8627;BME280;4351;51.422;6.794;2023-03-18T08:57:29;100986.72;;;14.77;100.00
8627;BME280;4351;51.422;6.794;2023-03-18T08:59:57;100983.78;;;14.93;100.00
8627;BME280;4351;51.422;6.794;2023-03-18T09:02:25;100989.78;;;15.46;100.00
8627;BME280;4351;51.422;6.794;2023-03-18T09:04:54;100985.94;;;15.49;100.00
8627;BME280;4351;51.422;6.794;2023-03-18T09:07:23;100986.94;;;15.48;100.00
8627;BME280;4351;51.422;6.794;2023-03-18T09:09:51;100978.50;;;15.39;100.00
8627;BME280;4351;51.422;6.794;2023-03-18T09:12:19;100983.31;;;15.36;100.00
8627;BME280;4351;51.422;6.794;2023-03-18T09:14:47;100983.72;;;15.54;100.00
8627;BME280;4351;51.422;6.794;2023-03-18T09:17:15;100972.75;;;15.67;100.00
8627;BME280;4351;51.422;6.794;2023-03-18T09:19:43;100987.31;;;15.55;100.00
8627;BME280;4351;51.422;6.794;2023-03-18T09:22:11;100984.69;;;15.42;100.00
8627;BME280;4351;51.422;6.794;2023-03-18T09:24:43;100981.41;;;15.25;100.00
8627;BME280;4351;51.422;6.794;2023-03-18T09:27:11;100980.16;;;15.17;100.00
8627;BME280;4351;51.422;6.794;2023-03-18T09:29:39;100986.47;;;15.18;100.00
8627;BME280;4351;51.422;6.794;2023-03-18T09:32:08;100982.13;;;15.15;100.00
8627;BME280;4351;51.422;6.794;2023-03-18T09:34:36;100980.13;;;15.06;100.00
8627;BME280;4351;51.422;6.794;2023-03-18T09:37:04;100976.03;;;15.36;100.00
8627;BME280;4351;51.422;6.794;2023-03-18T09:39:32;100966.34;;;15.68;100.00
8627;BME280;4351;51.422;6.794;2023-03-18T09:42:20;100960.81;;;16.04;100.00
8627;BME280;4351;51.422;6.794;2023-03-18T09:44:56;100962.44;;;16.07;100.00
8627;BME280;4351;51.422;6.794;2023-03-18T09:47:43;100966.63;;;16.11;100.00
8627;BME280;4351;51.422;6.794;2023-03-18T09:50:22;100967.22;;;15.92;100.00
8627;BME280;4351;51.422;6.794;2023-03-18T09:53:05;100962.66;;;16.15;100.00
8627;BME280;4351;51.422;6.794;2023-03-18T09:55:41;100957.97;;;16.17;100.00
8627;BME280;4351;51.422;6.794;2023-03-18T09:58:20;100952.75;;;16.37;100.00
8627;BME280;4351;51.422;6.794;2023-03-18T10:00:53;100947.69;;;16.32;100.00
8627;BME280;4351;51.422;6.794;2023-03-18T10:07:39;100948.31;;;16.36;100.00
8627;BME280;4351;51.422;6.794;2023-03-18T10:10:11;100947.81;;;16.31;100.00
8627;BME280;4351;51.422;6.794;2023-03-18T10:17:02;100935.72;;;17.01;100.00
8627;BME280;4351;51.422;6.794;2023-03-18T10:19:33;100936.41;;;16.82;100.00
8627;BME280;4351;51.422;6.794;2023-03-18T10:22:18;100947.91;;;16.85;100.00
8627;BME280;4351;51.422;6.794;2023-03-18T10:24:53;100935.91;;;16.88;100.00
8627;BME280;4351;51.422;6.794;2023-03-18T10:27:36;100926.28;;;17.05;100.00
8627;BME280;4351;51.422;6.794;2023-03-18T10:30:27;100927.72;;;17.21;100.00
8627;BME280;4351;51.422;6.794;2023-03-18T10:33:03;100927.75;;;17.09;100.00
8627;BME280;4351;51.422;6.794;2023-03-18T10:35:41;100930.06;;;17.26;100.00
8627;BME280;4351;51.422;6.794;2023-03-18T10:38:17;100930.25;;;17.34;100.00
8627;BME280;4351;51.422;6.794;2023-03-18T10:40:46;100934.00;;;17.33;100.00
8627;BME280;4351;51.422;6.794;2023-03-18T10:43:16;100932.38;;;17.52;100.00
8627;BME280;4351;51.422;6.794;2023-03-18T10:45:47;100938.94;;;17.49;100.00
8627;BME280;4351;51.422;6.794;2023-03-18T10:48:20;100928.69;;;17.63;100.00
8627;BME280;4351;51.422;6.794;2023-03-18T10:51:02;100923.44;;;17.71;100.00
8627;BME280;4351;51.422;6.794;2023-03-18T10:53:37;100919.41;;;17.75;100.00
8627;BME280;4351;51.422;6.794;2023-03-18T10:56:07;100917.78;;;17.63;100.00
8627;BME280;4351;51.422;6.794;2023-03-18T10:58:36;100911.25;;;17.75;100.00
8627;BME280;4351;51.422;6.794;2023-03-18T11:01:05;100917.00;;;17.82;100.00
8627;BME280;4351;51.422;6.794;2023-03-18T11:03:40;100908.41;;;17.87;100.00
8627;BME280;4351;51.422;6.794;2023-03-18T11:06:15;100903.69;;;17.57;100.00
8627;BME280;4351;51.422;6.794;2023-03-18T11:08:47;100898.75;;;17.41;100.00
8627;BME280;4351;51.422;6.794;2023-03-18T11:11:21;100894.44;;;17.49;100.00
8627;BME280;4351;51.422;6.794;2023-03-18T11:13:51;100898.06;;;17.80;100.00
8627;BME280;4351;51.422;6.794;2023-03-18T11:20:35;100915.13;;;18.14;100.00
8627;BME280;4351;51.422;6.794;2023-03-18T11:23:14;100905.34;;;18.11;100.00
8627;BME280;4351;51.422;6.794;2023-03-18T11:25:47;100900.09;;;17.88;100.00
8627;BME280;4351;51.422;6.794;2023-03-18T11:28:19;100896.94;;;17.93;100.00
8627;BME280;4351;51.422;6.794;2023-03-18T11:30:50;100897.50;;;18.28;100.00
8627;BME280;4351;51.422;6.794;2023-03-18T11:33:23;100905.69;;;18.18;100.00
8627;BME280;4351;51.422;6.794;2023-03-18T11:35:54;100915.38;;;18.42;100.00
8627;BME280;4351;51.422;6.794;2023-03-18T11:38:25;100912.66;;;18.52;100.00
8627;BME280;4351;51.422;6.794;2023-03-18T11:41:04;100905.75;;;18.68;100.00
8627;BME280;4351;51.422;6.794;2023-03-18T11:43:35;100905.34;;;18.92;100.00
8627;BME280;4351;51.422;6.794;2023-03-18T11:46:06;100913.41;;;19.04;100.00
8627;BME280;4351;51.422;6.794;2023-03-18T11:48:36;100920.16;;;19.00;100.00
8627;BME280;4351;51.422;6.794;2023-03-18T11:51:27;100905.34;;;18.63;100.00
8627;BME280;4351;51.422;6.794;2023-03-18T11:54:30;100904.16;;;19.05;100.00
8627;BME280;4351;51.422;6.794;2023-03-18T11:57:10;100902.44;;;18.44;100.00
8627;BME280;4351;51.422;6.794;2023-03-18T11:59:49;100911.63;;;18.33;100.00
8627;BME280;4351;51.422;6.794;2023-03-18T12:02:46;100910.44;;;17.95;100.00
8627;BME280;4351;51.422;6.794;2023-03-18T12:05:41;100906.63;;;18.48;100.00
8627;BME280;4351;51.422;6.794;2023-03-18T12:08:22;100908.72;;;18.25;100.00
8627;BME280;4351;51.422;6.794;2023-03-18T12:11:00;100898.56;;;18.06;100.00
8627;BME280;4351;51.422;6.794;2023-03-18T12:13:39;100895.53;;;18.40;100.00
8627;BME280;4351;51.422;6.794;2023-03-18T12:16:16;100902.75;;;19.01;100.00
8627;BME280;4351;51.422;6.794;2023-03-18T12:19:06;100901.16;;;18.68;100.00
8627;BME280;4351;51.422;6.794;2023-03-18T12:22:01;100906.00;;;18.35;100.00
8627;BME280;4351;51.422;6.794;2023-03-18T12:24:50;100904.72;;;17.88;100.00
8627;BME280;4351;51.422;6.794;2023-03-18T12:27:33;100905.53;;;17.78;100.00
8627;BME280;4351;51.422;6.794;2023-03-18T12:30:16;100902.25;;;17.95;100.00
8627;BME280;4351;51.422;6.794;2023-03-18T12:32:50;100893.81;;;17.98;100.00
8627;BME280;4351;51.422;6.794;2023-03-18T12:35:35;100897.41;;;18.49;100.00
8627;BME280;4351;51.422;6.794;2023-03-18T12:38:20;100890.19;;;18.29;100.00
8627;BME280;4351;51.422;6.794;2023-03-18T12:40:59;100889.31;;;18.28;100.00
8627;BME280;4351;51.422;6.794;2023-03-18T12:43:39;100891.63;;;18.33;100.00
8627;BME280;4351;51.422;6.794;2023-03-18T12:46:19;100881.19;;;18.07;100.00
8627;BME280;4351;51.422;6.794;2023-03-18T12:48:51;100887.00;;;18.23;100.00
8627;BME280;4351;51.422;6.794;2023-03-18T12:51:24;100884.19;;;18.45;100.00
8627;BME280;4351;51.422;6.794;2023-03-18T12:53:59;100877.03;;;18.73;100.00
8627;BME280;4351;51.422;6.794;2023-03-18T12:56:35;100872.41;;;18.74;100.00
8627;BME280;4351;51.422;6.794;2023-03-18T12:59:07;100868.09;;;18.32;100.00
8627;BME280;4351;51.422;6.794;2023-03-18T13:01:40;100879.84;;;18.22;100.00
8627;BME280;4351;51.422;6.794;2023-03-18T13:04:12;100867.19;;;18.21;100.00
8627;BME280;4351;51.422;6.794;2023-03-18T13:06:45;100873.34;;;18.23;100.00
8627;BME280;4351;51.422;6.794;2023-03-18T13:09:23;100862.03;;;17.87;100.00
8627;BME280;4351;51.422;6.794;2023-03-18T13:12:03;100868.78;;;17.83;100.00
8627;BME280;4351;51.422;6.794;2023-03-18T13:14:42;100865.78;;;17.86;100.00
8627;BME280;4351;51.422;6.794;2023-03-18T13:17:12;100870.22;;;17.55;100.00
8627;BME280;4351;51.422;6.794;2023-03-18T13:19:42;100864.22;;;17.62;100.00
8627;BME280;4351;51.422;6.794;2023-03-18T13:22:26;100878.28;;;17.57;100.00
8627;BME280;4351;51.422;6.794;2023-03-18T13:25:13;100871.47;;;17.41;100.00
8627;BME280;4351;51.422;6.794;2023-03-18T13:27:53;100873.06;;;17.44;100.00
8627;BME280;4351;51.422;6.794;2023-03-18T13:30:32;100873.69;;;17.26;100.00
8627;BME280;4351;51.422;6.794;2023-03-18T13:33:24;100879.72;;;17.30;100.00
8627;BME280;4351;51.422;6.794;2023-03-18T13:36:11;100874.97;;;17.10;100.00
8627;BME280;4351;51.422;6.794;2023-03-18T13:38:59;100875.22;;;17.07;100.00
8627;BME280;4351;51.422;6.794;2023-03-18T13:41:48;100882.81;;;17.04;100.00